Terminal Aerodrome Forecast
Issued by NWS Sterling, VA

Home | Current Version | Previous Version | Text Only | Print | Product List | Glossary On
Versions: 1 2 3 4 5 6 7 8 9 10 11 12 13 14 15 16 17 18 19 20
000
FTUS41 KLWX 251439 AAA
TAFMRB
TAF AMD
KMRB 251439Z 2515/2612 29009KT P6SM FEW060 FEW250
     FM251600 29011G22KT P6SM SCT060
     FM260200 28007KT P6SM SCT060
     FM260700 VRB03KT P6SM FEW060=

USA.gov is the U.S. government's official web portal to all federal, state and local government web resources and services.